sensor_id;sensor_type;location;lat;lon;timestamp;temperature;humidity
64855;DHT22;51321;50.428;8.378;2024-02-26T00:02:00;5.60;99.90
64855;DHT22;51321;50.428;8.378;2024-02-26T00:04:40;5.50;99.90
64855;DHT22;51321;50.428;8.378;2024-02-26T00:07:21;5.50;99.90
64855;DHT22;51321;50.428;8.378;2024-02-26T00:10:03;5.60;99.90
64855;DHT22;51321;50.428;8.378;2024-02-26T00:12:44;5.70;99.90
64855;DHT22;51321;50.428;8.378;2024-02-26T00:15:24;5.60;99.90
64855;DHT22;51321;50.428;8.378;2024-02-26T00:18:06;5.60;99.90
64855;DHT22;51321;50.428;8.378;2024-02-26T00:20:47;5.50;99.90
64855;DHT22;51321;50.428;8.378;2024-02-26T00:23:27;5.60;99.90
64855;DHT22;51321;50.428;8.378;2024-02-26T00:26:09;5.60;99.90
64855;DHT22;51321;50.428;8.378;2024-02-26T00:28:50;5.60;99.90
64855;DHT22;51321;50.428;8.378;2024-02-26T00:31:31;5.70;99.90
64855;DHT22;51321;50.428;8.378;2024-02-26T00:34:11;5.70;99.90
64855;DHT22;51321;50.428;8.378;2024-02-26T00:36:52;5.70;99.90
64855;DHT22;51321;50.428;8.378;2024-02-26T00:39:32;5.70;99.90
64855;DHT22;51321;50.428;8.378;2024-02-26T00:42:14;5.70;99.90
64855;DHT22;51321;50.428;8.378;2024-02-26T00:44:55;5.60;99.90
64855;DHT22;51321;50.428;8.378;2024-02-26T00:47:35;5.60;99.90
64855;DHT22;51321;50.428;8.378;2024-02-26T00:50:15;5.60;99.90
64855;DHT22;51321;50.428;8.378;2024-02-26T00:52:56;5.70;99.90
64855;DHT22;51321;50.428;8.378;2024-02-26T00:55:37;5.70;99.90
64855;DHT22;51321;50.428;8.378;2024-02-26T00:58:19;5.70;99.90
64855;DHT22;51321;50.428;8.378;2024-02-26T01:00:59;5.70;99.90
64855;DHT22;51321;50.428;8.378;2024-02-26T01:03:40;5.80;99.90
64855;DHT22;51321;50.428;8.378;2024-02-26T01:06:20;5.70;99.90
64855;DHT22;51321;50.428;8.378;2024-02-26T01:09:01;5.70;99.90
64855;DHT22;51321;50.428;8.378;2024-02-26T01:11:42;5.70;99.90
64855;DHT22;51321;50.428;8.378;2024-02-26T01:14:23;5.70;99.90
64855;DHT22;51321;50.428;8.378;2024-02-26T01:17:04;5.70;99.90
64855;DHT22;51321;50.428;8.378;2024-02-26T01:19:44;5.70;99.90
64855;DHT22;51321;50.428;8.378;2024-02-26T01:22:25;5.70;99.90
64855;DHT22;51321;50.428;8.378;2024-02-26T01:25:05;5.70;99.90
64855;DHT22;51321;50.428;8.378;2024-02-26T01:27:46;5.80;99.90
64855;DHT22;51321;50.428;8.378;2024-02-26T01:30:28;5.70;99.90
64855;DHT22;51321;50.428;8.378;2024-02-26T01:33:08;5.50;99.90
64855;DHT22;51321;50.428;8.378;2024-02-26T01:36:10;5.40;99.90
64855;DHT22;51321;50.428;8.378;2024-02-26T01:38:51;5.50;99.90
64855;DHT22;51321;50.428;8.378;2024-02-26T01:41:32;5.50;99.90
64855;DHT22;51321;50.428;8.378;2024-02-26T01:44:13;5.60;99.90
64855;DHT22;51321;50.428;8.378;2024-02-26T01:46:54;5.60;99.90
64855;DHT22;51321;50.428;8.378;2024-02-26T01:49:35;5.60;99.90
64855;DHT22;51321;50.428;8.378;2024-02-26T01:52:17;5.70;99.90
64855;DHT22;51321;50.428;8.378;2024-02-26T01:54:58;5.70;99.90
64855;DHT22;51321;50.428;8.378;2024-02-26T01:57:40;5.70;99.90
64855;DHT22;51321;50.428;8.378;2024-02-26T02:00:21;5.60;99.90
64855;DHT22;51321;50.428;8.378;2024-02-26T02:03:04;5.60;99.90
64855;DHT22;51321;50.428;8.378;2024-02-26T02:05:45;5.60;99.90
64855;DHT22;51321;50.428;8.378;2024-02-26T02:08:26;5.60;99.90
64855;DHT22;51321;50.428;8.378;2024-02-26T02:11:08;5.70;99.90
64855;DHT22;51321;50.428;8.378;2024-02-26T02:13:50;5.60;99.90
64855;DHT22;51321;50.428;8.378;2024-02-26T02:16:31;5.50;99.90
64855;DHT22;51321;50.428;8.378;2024-02-26T02:19:13;5.40;99.90
64855;DHT22;51321;50.428;8.378;2024-02-26T02:21:55;5.50;99.90
64855;DHT22;51321;50.428;8.378;2024-02-26T02:24:35;5.50;99.90
64855;DHT22;51321;50.428;8.378;2024-02-26T02:27:16;5.60;99.90
64855;DHT22;51321;50.428;8.378;2024-02-26T02:29:56;5.60;99.90
64855;DHT22;51321;50.428;8.378;2024-02-26T02:32:38;5.70;99.90
64855;DHT22;51321;50.428;8.378;2024-02-26T02:35:20;5.80;99.90
64855;DHT22;51321;50.428;8.378;2024-02-26T02:38:02;5.70;99.90
64855;DHT22;51321;50.428;8.378;2024-02-26T02:40:43;5.60;99.90
64855;DHT22;51321;50.428;8.378;2024-02-26T02:43:23;5.60;99.90
64855;DHT22;51321;50.428;8.378;2024-02-26T02:46:05;5.60;99.90
64855;DHT22;51321;50.428;8.378;2024-02-26T02:48:45;5.70;99.90
64855;DHT22;51321;50.428;8.378;2024-02-26T02:51:25;5.70;99.90
64855;DHT22;51321;50.428;8.378;2024-02-26T02:54:07;5.70;99.90
64855;DHT22;51321;50.428;8.378;2024-02-26T02:56:48;5.60;99.90
64855;DHT22;51321;50.428;8.378;2024-02-26T02:59:28;5.70;99.90
64855;DHT22;51321;50.428;8.378;2024-02-26T03:02:09;5.70;99.90
64855;DHT22;51321;50.428;8.378;2024-02-26T03:04:50;5.70;99.90
64855;DHT22;51321;50.428;8.378;2024-02-26T03:07:30;5.70;99.90
64855;DHT22;51321;50.428;8.378;2024-02-26T03:10:12;5.80;99.90
64855;DHT22;51321;50.428;8.378;2024-02-26T03:12:53;5.80;99.90
64855;DHT22;51321;50.428;8.378;2024-02-26T03:15:35;5.70;99.90
64855;DHT22;51321;50.428;8.378;2024-02-26T03:18:16;5.70;99.90
64855;DHT22;51321;50.428;8.378;2024-02-26T03:20:56;5.70;99.90
64855;DHT22;51321;50.428;8.378;2024-02-26T03:23:37;5.80;99.90
64855;DHT22;51321;50.428;8.378;2024-02-26T03:26:19;5.70;99.90
64855;DHT22;51321;50.428;8.378;2024-02-26T03:29:00;5.60;99.90
64855;DHT22;51321;50.428;8.378;2024-02-26T03:31:41;5.60;99.90
64855;DHT22;51321;50.428;8.378;2024-02-26T03:34:22;5.60;99.90
64855;DHT22;51321;50.428;8.378;2024-02-26T03:37:03;5.60;99.90
64855;DHT22;51321;50.428;8.378;2024-02-26T03:39:43;5.60;99.90
64855;DHT22;51321;50.428;8.378;2024-02-26T03:42:25;5.60;99.90
64855;DHT22;51321;50.428;8.378;2024-02-26T03:45:06;5.50;99.90
64855;DHT22;51321;50.428;8.378;2024-02-26T03:47:48;5.50;99.90
64855;DHT22;51321;50.428;8.378;2024-02-26T03:50:29;5.50;99.90
64855;DHT22;51321;50.428;8.378;2024-02-26T03:53:09;5.50;99.90
64855;DHT22;51321;50.428;8.378;2024-02-26T03:55:52;5.50;99.90
64855;DHT22;51321;50.428;8.378;2024-02-26T03:58:33;5.50;99.90
64855;DHT22;51321;50.428;8.378;2024-02-26T04:01:14;5.60;99.90
64855;DHT22;51321;50.428;8.378;2024-02-26T04:03:54;5.60;99.90
64855;DHT22;51321;50.428;8.378;2024-02-26T04:06:34;5.60;99.90
64855;DHT22;51321;50.428;8.378;2024-02-26T04:09:15;5.70;99.90
64855;DHT22;51321;50.428;8.378;2024-02-26T04:11:55;5.70;99.90
64855;DHT22;51321;50.428;8.378;2024-02-26T04:14:37;5.70;99.90
64855;DHT22;51321;50.428;8.378;2024-02-26T04:17:18;5.60;99.90
64855;DHT22;51321;50.428;8.378;2024-02-26T04:19:58;5.60;99.90
64855;DHT22;51321;50.428;8.378;2024-02-26T04:22:39;5.70;99.90
64855;DHT22;51321;50.428;8.378;2024-02-26T04:25:19;5.60;99.90
64855;DHT22;51321;50.428;8.378;2024-02-26T04:27:59;5.70;99.90
64855;DHT22;51321;50.428;8.378;2024-02-26T04:30:41;5.60;99.90
64855;DHT22;51321;50.428;8.378;2024-02-26T04:33:22;5.70;99.90
64855;DHT22;51321;50.428;8.378;2024-02-26T04:36:03;5.70;99.90
64855;DHT22;51321;50.428;8.378;2024-02-26T04:38:44;5.60;99.90
64855;DHT22;51321;50.428;8.378;2024-02-26T04:41:24;5.70;99.90
64855;DHT22;51321;50.428;8.378;2024-02-26T04:44:05;5.70;99.90
64855;DHT22;51321;50.428;8.378;2024-02-26T04:46:47;5.70;99.90
64855;DHT22;51321;50.428;8.378;2024-02-26T04:49:27;5.70;99.90
64855;DHT22;51321;50.428;8.378;2024-02-26T04:52:08;5.70;99.90
64855;DHT22;51321;50.428;8.378;2024-02-26T04:54:48;5.70;99.90
64855;DHT22;51321;50.428;8.378;2024-02-26T04:57:29;5.70;99.90
64855;DHT22;51321;50.428;8.378;2024-02-26T05:00:12;5.80;99.90
64855;DHT22;51321;50.428;8.378;2024-02-26T05:02:54;5.80;99.90
64855;DHT22;51321;50.428;8.378;2024-02-26T05:05:35;5.80;99.90
64855;DHT22;51321;50.428;8.378;2024-02-26T05:08:15;5.80;99.90
64855;DHT22;51321;50.428;8.378;2024-02-26T05:10:56;5.70;99.90
64855;DHT22;51321;50.428;8.378;2024-02-26T05:13:36;5.80;99.90
64855;DHT22;51321;50.428;8.378;2024-02-26T05:16:17;5.80;99.90
64855;DHT22;51321;50.428;8.378;2024-02-26T05:19:01;5.70;99.90
64855;DHT22;51321;50.428;8.378;2024-02-26T05:21:42;5.70;99.90
64855;DHT22;51321;50.428;8.378;2024-02-26T05:24:23;5.70;99.90
64855;DHT22;51321;50.428;8.378;2024-02-26T05:27:04;5.70;99.90
64855;DHT22;51321;50.428;8.378;2024-02-26T05:29:45;5.70;99.90
64855;DHT22;51321;50.428;8.378;2024-02-26T05:32:25;5.70;99.90
64855;DHT22;51321;50.428;8.378;2024-02-26T05:35:07;5.70;99.90
64855;DHT22;51321;50.428;8.378;2024-02-26T05:37:47;5.70;99.90
64855;DHT22;51321;50.428;8.378;2024-02-26T05:40:28;5.70;99.90
64855;DHT22;51321;50.428;8.378;2024-02-26T05:43:09;5.60;99.90
64855;DHT22;51321;50.428;8.378;2024-02-26T05:45:49;5.60;99.90
64855;DHT22;51321;50.428;8.378;2024-02-26T05:48:30;5.50;99.90
64855;DHT22;51321;50.428;8.378;2024-02-26T05:51:12;5.40;99.90
64855;DHT22;51321;50.428;8.378;2024-02-26T05:53:53;5.40;99.90
64855;DHT22;51321;50.428;8.378;2024-02-26T05:56:34;5.40;99.90
64855;DHT22;51321;50.428;8.378;2024-02-26T05:59:14;5.40;99.90
64855;DHT22;51321;50.428;8.378;2024-02-26T06:01:55;5.40;99.90
64855;DHT22;51321;50.428;8.378;2024-02-26T06:04:36;5.50;99.90
64855;DHT22;51321;50.428;8.378;2024-02-26T06:07:18;5.50;99.90
64855;DHT22;51321;50.428;8.378;2024-02-26T06:09:58;5.50;99.90
64855;DHT22;51321;50.428;8.378;2024-02-26T06:12:38;5.50;99.90
64855;DHT22;51321;50.428;8.378;2024-02-26T06:15:19;5.50;99.90
64855;DHT22;51321;50.428;8.378;2024-02-26T06:18:00;5.40;99.90
64855;DHT22;51321;50.428;8.378;2024-02-26T06:20:40;5.40;99.90
64855;DHT22;51321;50.428;8.378;2024-02-26T06:23:22;5.40;99.90
64855;DHT22;51321;50.428;8.378;2024-02-26T06:26:03;5.50;99.90
64855;DHT22;51321;50.428;8.378;2024-02-26T06:28:44;5.50;99.90
64855;DHT22;51321;50.428;8.378;2024-02-26T06:31:24;5.50;99.90
64855;DHT22;51321;50.428;8.378;2024-02-26T06:34:07;5.50;99.90
64855;DHT22;51321;50.428;8.378;2024-02-26T06:36:47;5.50;99.90
64855;DHT22;51321;50.428;8.378;2024-02-26T06:39:29;5.50;99.90
64855;DHT22;51321;50.428;8.378;2024-02-26T06:42:10;5.50;99.90
64855;DHT22;51321;50.428;8.378;2024-02-26T06:44:50;5.50;99.90
64855;DHT22;51321;50.428;8.378;2024-02-26T06:47:31;5.50;99.90
64855;DHT22;51321;50.428;8.378;2024-02-26T06:50:12;5.40;99.90
64855;DHT22;51321;50.428;8.378;2024-02-26T06:52:53;5.40;99.90
64855;DHT22;51321;50.428;8.378;2024-02-26T06:55:35;5.40;99.90
64855;DHT22;51321;50.428;8.378;2024-02-26T06:58:16;5.30;99.90
64855;DHT22;51321;50.428;8.378;2024-02-26T07:00:59;5.30;99.90
64855;DHT22;51321;50.428;8.378;2024-02-26T07:03:43;5.40;99.90
64855;DHT22;51321;50.428;8.378;2024-02-26T07:06:23;5.40;99.90
64855;DHT22;51321;50.428;8.378;2024-02-26T07:09:04;5.30;99.90
64855;DHT22;51321;50.428;8.378;2024-02-26T07:11:45;5.50;99.90
64855;DHT22;51321;50.428;8.378;2024-02-26T07:14:26;5.50;99.90
64855;DHT22;51321;50.428;8.378;2024-02-26T07:17:07;5.50;99.90
64855;DHT22;51321;50.428;8.378;2024-02-26T07:19:47;5.50;99.90
64855;DHT22;51321;50.428;8.378;2024-02-26T07:22:27;5.50;99.90
64855;DHT22;51321;50.428;8.378;2024-02-26T07:25:08;5.40;99.90
64855;DHT22;51321;50.428;8.378;2024-02-26T07:27:53;5.50;99.90
64855;DHT22;51321;50.428;8.378;2024-02-26T07:30:34;5.50;99.90
64855;DHT22;51321;50.428;8.378;2024-02-26T07:33:14;5.50;99.90
64855;DHT22;51321;50.428;8.378;2024-02-26T07:35:55;5.50;99.90
64855;DHT22;51321;50.428;8.378;2024-02-26T07:38:35;5.50;99.90
64855;DHT22;51321;50.428;8.378;2024-02-26T07:41:16;5.50;99.90
64855;DHT22;51321;50.428;8.378;2024-02-26T07:43:57;5.50;99.90
64855;DHT22;51321;50.428;8.378;2024-02-26T07:46:38;5.50;99.90
64855;DHT22;51321;50.428;8.378;2024-02-26T07:49:18;5.50;99.90
64855;DHT22;51321;50.428;8.378;2024-02-26T07:51:59;5.60;99.90
64855;DHT22;51321;50.428;8.378;2024-02-26T07:54:39;5.50;99.90
64855;DHT22;51321;50.428;8.378;2024-02-26T07:57:20;5.60;99.90
64855;DHT22;51321;50.428;8.378;2024-02-26T08:00:02;5.50;99.90
64855;DHT22;51321;50.428;8.378;2024-02-26T08:02:46;5.60;99.90
64855;DHT22;51321;50.428;8.378;2024-02-26T08:05:27;5.60;99.90
64855;DHT22;51321;50.428;8.378;2024-02-26T08:08:08;5.60;99.90
64855;DHT22;51321;50.428;8.378;2024-02-26T08:10:48;5.70;99.90
64855;DHT22;51321;50.428;8.378;2024-02-26T08:13:29;5.70;99.90
64855;DHT22;51321;50.428;8.378;2024-02-26T08:16:11;5.70;99.90
64855;DHT22;51321;50.428;8.378;2024-02-26T08:18:53;5.60;99.90
64855;DHT22;51321;50.428;8.378;2024-02-26T08:21:33;5.60;99.90
64855;DHT22;51321;50.428;8.378;2024-02-26T08:24:16;5.50;99.90
64855;DHT22;51321;50.428;8.378;2024-02-26T08:26:57;5.40;99.90
64855;DHT22;51321;50.428;8.378;2024-02-26T08:29:37;5.50;99.90
64855;DHT22;51321;50.428;8.378;2024-02-26T08:32:19;5.60;99.90
64855;DHT22;51321;50.428;8.378;2024-02-26T08:35:00;5.60;99.90
64855;DHT22;51321;50.428;8.378;2024-02-26T08:37:43;5.70;99.90
64855;DHT22;51321;50.428;8.378;2024-02-26T08:40:24;5.70;99.90
64855;DHT22;51321;50.428;8.378;2024-02-26T08:43:05;5.70;99.90
64855;DHT22;51321;50.428;8.378;2024-02-26T08:45:45;5.70;99.90
64855;DHT22;51321;50.428;8.378;2024-02-26T08:48:27;5.70;99.90
64855;DHT22;51321;50.428;8.378;2024-02-26T08:51:08;5.70;99.90
64855;DHT22;51321;50.428;8.378;2024-02-26T08:53:49;5.70;99.90
64855;DHT22;51321;50.428;8.378;2024-02-26T08:56:30;5.80;99.90
64855;DHT22;51321;50.428;8.378;2024-02-26T08:59:10;5.90;99.90
64855;DHT22;51321;50.428;8.378;2024-02-26T09:01:51;5.90;99.90
64855;DHT22;51321;50.428;8.378;2024-02-26T09:04:33;5.90;99.90
64855;DHT22;51321;50.428;8.378;2024-02-26T09:07:14;6.10;99.90
64855;DHT22;51321;50.428;8.378;2024-02-26T09:09:54;6.00;99.90
64855;DHT22;51321;50.428;8.378;2024-02-26T09:12:35;6.10;99.90
64855;DHT22;51321;50.428;8.378;2024-02-26T09:15:16;6.20;99.90
64855;DHT22;51321;50.428;8.378;2024-02-26T09:17:56;6.20;99.90
64855;DHT22;51321;50.428;8.378;2024-02-26T09:20:38;6.20;99.90
64855;DHT22;51321;50.428;8.378;2024-02-26T09:23:19;6.20;99.90
64855;DHT22;51321;50.428;8.378;2024-02-26T09:25:59;6.30;99.90
64855;DHT22;51321;50.428;8.378;2024-02-26T09:28:40;6.50;99.90
64855;DHT22;51321;50.428;8.378;2024-02-26T09:31:20;6.50;99.90
64855;DHT22;51321;50.428;8.378;2024-02-26T09:34:00;6.50;99.90
64855;DHT22;51321;50.428;8.378;2024-02-26T09:36:43;6.50;99.90
64855;DHT22;51321;50.428;8.378;2024-02-26T09:39:23;6.40;99.90
64855;DHT22;51321;50.428;8.378;2024-02-26T09:42:05;6.40;99.90
64855;DHT22;51321;50.428;8.378;2024-02-26T09:44:45;6.50;99.90
64855;DHT22;51321;50.428;8.378;2024-02-26T09:47:26;6.50;99.90
64855;DHT22;51321;50.428;8.378;2024-02-26T09:50:09;6.60;99.90
64855;DHT22;51321;50.428;8.378;2024-02-26T09:52:54;6.60;99.90
64855;DHT22;51321;50.428;8.378;2024-02-26T09:55:36;6.70;99.90
64855;DHT22;51321;50.428;8.378;2024-02-26T09:58:17;6.80;99.90
64855;DHT22;51321;50.428;8.378;2024-02-26T10:01:00;7.00;99.90
64855;DHT22;51321;50.428;8.378;2024-02-26T10:03:44;7.10;99.90
64855;DHT22;51321;50.428;8.378;2024-02-26T10:06:28;7.20;99.90
64855;DHT22;51321;50.428;8.378;2024-02-26T10:09:10;7.10;99.90
64855;DHT22;51321;50.428;8.378;2024-02-26T10:11:51;7.20;99.90
64855;DHT22;51321;50.428;8.378;2024-02-26T10:14:31;7.30;99.90
64855;DHT22;51321;50.428;8.378;2024-02-26T10:17:12;7.20;99.90
64855;DHT22;51321;50.428;8.378;2024-02-26T10:19:53;7.20;99.90
64855;DHT22;51321;50.428;8.378;2024-02-26T10:22:35;7.30;99.90
64855;DHT22;51321;50.428;8.378;2024-02-26T10:25:18;7.40;99.90
64855;DHT22;51321;50.428;8.378;2024-02-26T10:28:00;7.60;99.90
64855;DHT22;51321;50.428;8.378;2024-02-26T10:30:42;7.70;99.90
64855;DHT22;51321;50.428;8.378;2024-02-26T10:33:23;7.50;99.90
64855;DHT22;51321;50.428;8.378;2024-02-26T10:36:06;7.40;99.90
64855;DHT22;51321;50.428;8.378;2024-02-26T10:38:48;7.50;99.90
64855;DHT22;51321;50.428;8.378;2024-02-26T10:41:29;7.70;99.90
64855;DHT22;51321;50.428;8.378;2024-02-26T10:44:11;7.80;99.90
64855;DHT22;51321;50.428;8.378;2024-02-26T10:46:52;7.80;99.90
64855;DHT22;51321;50.428;8.378;2024-02-26T10:49:35;7.60;99.90
64855;DHT22;51321;50.428;8.378;2024-02-26T10:52:15;7.60;99.90
64855;DHT22;51321;50.428;8.378;2024-02-26T10:55:00;7.50;99.90
64855;DHT22;51321;50.428;8.378;2024-02-26T10:57:45;7.40;99.90
64855;DHT22;51321;50.428;8.378;2024-02-26T11:00:26;7.40;99.90
64855;DHT22;51321;50.428;8.378;2024-02-26T11:03:09;7.30;99.90
64855;DHT22;51321;50.428;8.378;2024-02-26T11:05:50;7.30;99.90
64855;DHT22;51321;50.428;8.378;2024-02-26T11:08:31;7.40;99.90
64855;DHT22;51321;50.428;8.378;2024-02-26T11:11:13;7.30;99.90
64855;DHT22;51321;50.428;8.378;2024-02-26T11:13:56;7.30;99.90
64855;DHT22;51321;50.428;8.378;2024-02-26T11:16:38;7.40;99.90
64855;DHT22;51321;50.428;8.378;2024-02-26T11:19:19;7.40;99.90
64855;DHT22;51321;50.428;8.378;2024-02-26T11:22:00;7.40;99.90
64855;DHT22;51321;50.428;8.378;2024-02-26T11:24:41;7.40;99.90
64855;DHT22;51321;50.428;8.378;2024-02-26T11:27:25;7.50;99.90
64855;DHT22;51321;50.428;8.378;2024-02-26T11:30:11;7.50;99.90
64855;DHT22;51321;50.428;8.378;2024-02-26T11:32:53;7.50;99.90
64855;DHT22;51321;50.428;8.378;2024-02-26T11:35:34;7.50;99.90
64855;DHT22;51321;50.428;8.378;2024-02-26T11:38:19;7.60;99.90
64855;DHT22;51321;50.428;8.378;2024-02-26T11:41:01;7.70;99.90
64855;DHT22;51321;50.428;8.378;2024-02-26T11:43:51;7.60;99.90
64855;DHT22;51321;50.428;8.378;2024-02-26T11:46:39;7.70;99.90
64855;DHT22;51321;50.428;8.378;2024-02-26T11:49:32;7.70;99.90
64855;DHT22;51321;50.428;8.378;2024-02-26T11:52:14;7.60;99.90
64855;DHT22;51321;50.428;8.378;2024-02-26T11:54:56;7.60;99.90
64855;DHT22;51321;50.428;8.378;2024-02-26T11:57:39;7.50;99.90
64855;DHT22;51321;50.428;8.378;2024-02-26T12:00:20;7.70;99.90
64855;DHT22;51321;50.428;8.378;2024-02-26T12:03:04;7.80;99.90
64855;DHT22;51321;50.428;8.378;2024-02-26T12:05:47;7.90;99.90
64855;DHT22;51321;50.428;8.378;2024-02-26T12:08:30;7.90;99.90
64855;DHT22;51321;50.428;8.378;2024-02-26T12:11:14;7.90;99.90
64855;DHT22;51321;50.428;8.378;2024-02-26T12:13:55;7.80;99.90
64855;DHT22;51321;50.428;8.378;2024-02-26T12:16:38;7.90;99.90
64855;DHT22;51321;50.428;8.378;2024-02-26T12:19:20;7.80;99.90
64855;DHT22;51321;50.428;8.378;2024-02-26T12:22:01;8.00;99.90
64855;DHT22;51321;50.428;8.378;2024-02-26T12:24:43;8.20;99.90
64855;DHT22;51321;50.428;8.378;2024-02-26T12:27:23;8.30;99.90
64855;DHT22;51321;50.428;8.378;2024-02-26T12:30:04;8.40;99.90
64855;DHT22;51321;50.428;8.378;2024-02-26T12:32:45;8.20;99.90
64855;DHT22;51321;50.428;8.378;2024-02-26T12:35:28;8.10;99.90
64855;DHT22;51321;50.428;8.378;2024-02-26T12:38:10;8.00;99.90
64855;DHT22;51321;50.428;8.378;2024-02-26T12:40:53;7.90;99.90
64855;DHT22;51321;50.428;8.378;2024-02-26T12:43:33;7.90;99.90
64855;DHT22;51321;50.428;8.378;2024-02-26T12:46:14;8.00;99.90
64855;DHT22;51321;50.428;8.378;2024-02-26T12:48:56;8.10;99.90
64855;DHT22;51321;50.428;8.378;2024-02-26T12:51:40;8.30;99.90
64855;DHT22;51321;50.428;8.378;2024-02-26T12:54:20;8.30;99.90
64855;DHT22;51321;50.428;8.378;2024-02-26T12:57:03;8.30;99.90
64855;DHT22;51321;50.428;8.378;2024-02-26T12:59:45;8.30;99.90
64855;DHT22;51321;50.428;8.378;2024-02-26T13:02:26;8.40;99.90
64855;DHT22;51321;50.428;8.378;2024-02-26T13:05:07;8.60;99.90
64855;DHT22;51321;50.428;8.378;2024-02-26T13:07:50;8.80;99.90
64855;DHT22;51321;50.428;8.378;2024-02-26T13:10:32;8.90;99.90
64855;DHT22;51321;50.428;8.378;2024-02-26T13:13:14;9.10;99.90
64855;DHT22;51321;50.428;8.378;2024-02-26T13:16:02;9.10;99.90
64855;DHT22;51321;50.428;8.378;2024-02-26T13:18:43;9.10;99.90
64855;DHT22;51321;50.428;8.378;2024-02-26T13:21:25;9.10;99.90
64855;DHT22;51321;50.428;8.378;2024-02-26T13:24:07;9.10;99.90
64855;DHT22;51321;50.428;8.378;2024-02-26T13:26:54;9.30;99.90
64855;DHT22;51321;50.428;8.378;2024-02-26T13:29:34;9.50;99.90
64855;DHT22;51321;50.428;8.378;2024-02-26T13:32:15;9.70;99.90
64855;DHT22;51321;50.428;8.378;2024-02-26T13:35:04;9.70;99.90
64855;DHT22;51321;50.428;8.378;2024-02-26T13:37:45;9.40;99.90
64855;DHT22;51321;50.428;8.378;2024-02-26T13:40:27;9.20;99.90
64855;DHT22;51321;50.428;8.378;2024-02-26T13:43:08;9.00;99.90
64855;DHT22;51321;50.428;8.378;2024-02-26T13:45:48;8.90;99.90
64855;DHT22;51321;50.428;8.378;2024-02-26T13:48:29;8.80;99.90
64855;DHT22;51321;50.428;8.378;2024-02-26T13:51:10;8.80;99.90
64855;DHT22;51321;50.428;8.378;2024-02-26T13:53:50;8.80;99.90
64855;DHT22;51321;50.428;8.378;2024-02-26T13:56:32;8.90;99.90
64855;DHT22;51321;50.428;8.378;2024-02-26T13:59:14;8.80;99.90
64855;DHT22;51321;50.428;8.378;2024-02-26T14:01:54;8.70;99.90
64855;DHT22;51321;50.428;8.378;2024-02-26T14:04:36;8.70;99.90
64855;DHT22;51321;50.428;8.378;2024-02-26T14:07:17;8.70;99.90
64855;DHT22;51321;50.428;8.378;2024-02-26T14:09:57;8.80;99.90
64855;DHT22;51321;50.428;8.378;2024-02-26T14:12:43;8.70;99.90
64855;DHT22;51321;50.428;8.378;2024-02-26T14:15:23;8.70;99.90
64855;DHT22;51321;50.428;8.378;2024-02-26T14:18:04;8.80;99.90
64855;DHT22;51321;50.428;8.378;2024-02-26T14:20:45;8.80;99.90
64855;DHT22;51321;50.428;8.378;2024-02-26T14:23:26;8.90;99.90
64855;DHT22;51321;50.428;8.378;2024-02-26T14:26:06;8.90;99.90
64855;DHT22;51321;50.428;8.378;2024-02-26T14:28:49;8.90;99.90
64855;DHT22;51321;50.428;8.378;2024-02-26T14:31:30;8.90;99.90
64855;DHT22;51321;50.428;8.378;2024-02-26T14:34:10;8.90;99.90
64855;DHT22;51321;50.428;8.378;2024-02-26T14:36:50;8.90;99.90
64855;DHT22;51321;50.428;8.378;2024-02-26T14:39:31;8.90;99.90
64855;DHT22;51321;50.428;8.378;2024-02-26T14:42:12;8.80;99.90
64855;DHT22;51321;50.428;8.378;2024-02-26T14:44:58;8.80;99.90
64855;DHT22;51321;50.428;8.378;2024-02-26T14:47:39;8.80;99.90
64855;DHT22;51321;50.428;8.378;2024-02-26T14:50:19;8.80;99.90
64855;DHT22;51321;50.428;8.378;2024-02-26T14:53:00;8.70;99.90
64855;DHT22;51321;50.428;8.378;2024-02-26T14:55:42;8.80;99.90
64855;DHT22;51321;50.428;8.378;2024-02-26T14:58:22;8.70;99.90
64855;DHT22;51321;50.428;8.378;2024-02-26T15:01:04;8.70;99.90
64855;DHT22;51321;50.428;8.378;2024-02-26T15:03:45;8.70;99.90
64855;DHT22;51321;50.428;8.378;2024-02-26T15:06:26;8.70;99.90
64855;DHT22;51321;50.428;8.378;2024-02-26T15:09:07;8.70;99.90
64855;DHT22;51321;50.428;8.378;2024-02-26T15:11:48;8.80;99.90
64855;DHT22;51321;50.428;8.378;2024-02-26T15:14:28;8.80;99.90
64855;DHT22;51321;50.428;8.378;2024-02-26T15:17:10;8.80;99.90
64855;DHT22;51321;50.428;8.378;2024-02-26T15:19:52;8.80;99.90
64855;DHT22;51321;50.428;8.378;2024-02-26T15:22:33;8.90;99.90
64855;DHT22;51321;50.428;8.378;2024-02-26T15:25:13;8.90;99.90
64855;DHT22;51321;50.428;8.378;2024-02-26T15:27:54;8.90;99.90
64855;DHT22;51321;50.428;8.378;2024-02-26T15:30:35;8.90;99.90
64855;DHT22;51321;50.428;8.378;2024-02-26T15:33:16;8.90;99.90
64855;DHT22;51321;50.428;8.378;2024-02-26T15:35:58;9.00;99.90
64855;DHT22;51321;50.428;8.378;2024-02-26T15:38:38;9.00;99.90
64855;DHT22;51321;50.428;8.378;2024-02-26T15:41:19;9.00;99.90
64855;DHT22;51321;50.428;8.378;2024-02-26T15:43:59;9.00;99.90
64855;DHT22;51321;50.428;8.378;2024-02-26T15:46:40;9.10;99.90
64855;DHT22;51321;50.428;8.378;2024-02-26T15:49:22;9.10;99.90
64855;DHT22;51321;50.428;8.378;2024-02-26T15:52:03;9.20;99.90
64855;DHT22;51321;50.428;8.378;2024-02-26T15:54:44;9.20;99.90
64855;DHT22;51321;50.428;8.378;2024-02-26T15:57:24;9.20;99.90
64855;DHT22;51321;50.428;8.378;2024-02-26T16:00:06;9.20;99.90
64855;DHT22;51321;50.428;8.378;2024-02-26T16:02:52;9.20;99.90
64855;DHT22;51321;50.428;8.378;2024-02-26T16:05:34;9.20;99.90
64855;DHT22;51321;50.428;8.378;2024-02-26T16:08:18;9.10;99.90
64855;DHT22;51321;50.428;8.378;2024-02-26T16:11:00;9.10;99.90
64855;DHT22;51321;50.428;8.378;2024-02-26T16:13:40;9.00;99.90
64855;DHT22;51321;50.428;8.378;2024-02-26T16:16:23;9.00;99.90
64855;DHT22;51321;50.428;8.378;2024-02-26T16:19:06;9.00;99.90
64855;DHT22;51321;50.428;8.378;2024-02-26T16:21:49;9.00;99.90
64855;DHT22;51321;50.428;8.378;2024-02-26T16:24:29;9.00;99.90
64855;DHT22;51321;50.428;8.378;2024-02-26T16:27:10;8.90;99.90
64855;DHT22;51321;50.428;8.378;2024-02-26T16:29:50;8.90;99.90
64855;DHT22;51321;50.428;8.378;2024-02-26T16:32:32;8.90;99.90
64855;DHT22;51321;50.428;8.378;2024-02-26T16:35:13;8.90;99.90
64855;DHT22;51321;50.428;8.378;2024-02-26T16:38:13;8.90;99.90
64855;DHT22;51321;50.428;8.378;2024-02-26T16:40:53;8.80;99.90
64855;DHT22;51321;50.428;8.378;2024-02-26T16:43:34;8.80;99.90
64855;DHT22;51321;50.428;8.378;2024-02-26T16:46:15;8.80;99.90
64855;DHT22;51321;50.428;8.378;2024-02-26T16:48:57;8.80;99.90
64855;DHT22;51321;50.428;8.378;2024-02-26T16:51:38;8.70;99.90
64855;DHT22;51321;50.428;8.378;2024-02-26T16:54:20;8.70;99.90
64855;DHT22;51321;50.428;8.378;2024-02-26T16:57:01;8.70;99.90
64855;DHT22;51321;50.428;8.378;2024-02-26T16:59:42;8.60;99.90
64855;DHT22;51321;50.428;8.378;2024-02-26T17:02:23;8.60;99.90
64855;DHT22;51321;50.428;8.378;2024-02-26T17:05:03;8.70;99.90
64855;DHT22;51321;50.428;8.378;2024-02-26T17:07:44;8.60;99.90
64855;DHT22;51321;50.428;8.378;2024-02-26T17:10:27;8.60;99.90
64855;DHT22;51321;50.428;8.378;2024-02-26T17:13:07;8.60;99.90
64855;DHT22;51321;50.428;8.378;2024-02-26T17:15:48;8.60;99.90